Time;durP1;ratioP1;P1;durP2;ratioP2;P2;SDS_P1;SDS_P2;PMS_P1;PMS_P2;Temp;Humidity;BMP_temperature;BMP_pressure;BME280_temperature;BME280_humidity;BME280_pressure;Samples;Min_cycle;Max_cycle;Signal;HPM_P1;HPM_P2
2022/03/16 00:01:34;;;;;;;0.13;0.13;;;;;;;;;;5028827;28;20719;-76
2022/03/16 00:04:02;;;;;;;0.10;0.10;;;;;;;;;;5027453;28;20669;-76
2022/03/16 00:06:29;;;;;;;0.10;0.10;;;;;;;;;;5026443;28;20621;-76
2022/03/16 00:08:56;;;;;;;0.10;0.10;;;;;;;;;;5026324;28;20631;-76
2022/03/16 00:11:25;;;;;;;0.10;0.10;;;;;;;;;;5042946;28;20704;-76
2022/03/16 00:13:52;;;;;;;0.10;0.10;;;;;;;;;;5044256;28;20637;-76
2022/03/16 00:16:20;;;;;;;0.20;0.20;;;;;;;;;;5045378;28;20626;-76
2022/03/16 00:18:47;;;;;;;0.20;0.20;;;;;;;;;;5022107;28;20661;-76
2022/03/16 00:21:14;;;;;;;0.10;0.10;;;;;;;;;;5023371;28;20728;-76
2022/03/16 00:23:42;;;;;;;0.10;0.10;;;;;;;;;;5022413;28;20662;-76
2022/03/16 00:26:09;;;;;;;0.20;0.20;;;;;;;;;;5043073;28;20606;-76
2022/03/16 00:28:37;;;;;;;0.10;0.10;;;;;;;;;;5024639;28;20752;-75
2022/03/16 00:31:05;;;;;;;0.10;0.10;;;;;;;;;;5030406;28;20606;-76
2022/03/16 00:33:34;;;;;;;0.10;0.10;;;;;;;;;;5026999;28;20653;-76
2022/03/16 00:36:01;;;;;;;0.10;0.10;;;;;;;;;;5027155;28;20636;-76
2022/03/16 00:38:28;;;;;;;0.20;0.20;;;;;;;;;;5023570;28;20644;-74
2022/03/16 00:40:55;;;;;;;0.10;0.10;;;;;;;;;;5043542;28;20612;-75
2022/03/16 00:43:24;;;;;;;0.10;0.10;;;;;;;;;;5025910;28;20626;-75
2022/03/16 00:45:52;;;;;;;0.10;0.10;;;;;;;;;;5026142;28;20727;-76
2022/03/16 00:48:20;;;;;;;0.10;0.10;;;;;;;;;;5044087;28;20986;-76
2022/03/16 00:50:47;;;;;;;0.10;0.10;;;;;;;;;;5032185;28;20649;-76
2022/03/16 00:53:15;;;;;;;0.20;0.20;;;;;;;;;;5026929;28;20634;-75
2022/03/16 00:55:42;;;;;;;0.20;0.20;;;;;;;;;;5041977;28;20645;-75
2022/03/16 00:58:09;;;;;;;0.10;0.10;;;;;;;;;;5021400;28;20704;-75
2022/03/16 01:00:37;;;;;;;0.10;0.10;;;;;;;;;;5033289;28;20633;-76
2022/03/16 01:03:09;;;;;;;0.20;0.20;;;;;;;;;;5041574;28;20629;-76
2022/03/16 01:05:36;;;;;;;0.17;0.17;;;;;;;;;;5025784;28;20700;-76
2022/03/16 01:08:03;;;;;;;0.17;0.17;;;;;;;;;;5025219;28;20730;-76
2022/03/16 01:10:31;;;;;;;0.10;0.10;;;;;;;;;;5025268;28;20649;-76
2022/03/16 01:12:58;;;;;;;0.10;0.10;;;;;;;;;;5044111;28;20664;-76
2022/03/16 01:15:25;;;;;;;0.20;0.20;;;;;;;;;;5024698;28;20666;-76
2022/03/16 01:17:53;;;;;;;0.10;0.10;;;;;;;;;;5023069;28;20628;-76
2022/03/16 01:20:22;;;;;;;0.10;0.10;;;;;;;;;;5027054;28;20624;-76
2022/03/16 01:22:50;;;;;;;0.13;0.13;;;;;;;;;;5024355;28;20625;-76
2022/03/16 01:25:18;;;;;;;0.10;0.10;;;;;;;;;;5023308;28;20669;-76
2022/03/16 01:27:46;;;;;;;0.10;0.10;;;;;;;;;;5019381;28;20630;-76
2022/03/16 01:30:14;;;;;;;0.10;0.10;;;;;;;;;;5023346;28;21268;-76
2022/03/16 01:32:42;;;;;;;0.10;0.10;;;;;;;;;;5041682;28;20614;-76
2022/03/16 01:35:09;;;;;;;0.10;0.10;;;;;;;;;;5041802;28;20755;-76
2022/03/16 01:37:38;;;;;;;0.10;0.10;;;;;;;;;;5028109;28;20622;-76
2022/03/16 01:40:06;;;;;;;0.17;0.17;;;;;;;;;;5025194;28;20624;-76
2022/03/16 01:42:34;;;;;;;0.20;0.20;;;;;;;;;;5024646;28;20729;-76
2022/03/16 01:45:02;;;;;;;0.10;0.10;;;;;;;;;;5023512;28;21412;-76
2022/03/16 01:47:29;;;;;;;0.10;0.10;;;;;;;;;;5016345;28;20650;-76
2022/03/16 01:49:57;;;;;;;0.10;0.10;;;;;;;;;;5022411;28;20823;-76
2022/03/16 01:52:25;;;;;;;0.10;0.10;;;;;;;;;;5023994;28;20625;-76
2022/03/16 01:54:54;;;;;;;0.10;0.10;;;;;;;;;;5022825;28;20760;-76
2022/03/16 01:57:22;;;;;;;0.10;0.10;;;;;;;;;;5023810;28;20622;-76
2022/03/16 01:59:50;;;;;;;0.10;0.10;;;;;;;;;;5017662;28;20717;-76
2022/03/16 02:02:17;;;;;;;0.10;0.10;;;;;;;;;;5023127;28;20618;-76
2022/03/16 02:04:45;;;;;;;0.10;0.10;;;;;;;;;;5023727;28;20665;-76
2022/03/16 02:07:12;;;;;;;0.20;0.20;;;;;;;;;;5024623;28;20709;-76
2022/03/16 02:09:39;;;;;;;0.20;0.20;;;;;;;;;;5020081;28;20622;-75
2022/03/16 02:12:12;;;;;;;0.10;0.10;;;;;;;;;;5023103;28;20732;-75
2022/03/16 02:14:39;;;;;;;0.20;0.20;;;;;;;;;;5022237;28;20672;-75
2022/03/16 02:17:06;;;;;;;0.20;0.20;;;;;;;;;;5021911;28;20977;-74
2022/03/16 02:19:34;;;;;;;0.10;0.10;;;;;;;;;;5040690;28;20633;-75
2022/03/16 02:22:02;;;;;;;0.20;0.20;;;;;;;;;;5020415;28;20622;-75
2022/03/16 02:24:31;;;;;;;0.10;0.10;;;;;;;;;;5042097;28;20712;-75
2022/03/16 02:26:59;;;;;;;0.10;0.10;;;;;;;;;;5039273;28;20623;-76
2022/03/16 02:29:26;;;;;;;0.10;0.10;;;;;;;;;;5039834;28;20668;-75
2022/03/16 02:31:53;;;;;;;0.20;0.20;;;;;;;;;;5023702;28;20684;-75
2022/03/16 02:34:21;;;;;;;0.10;0.10;;;;;;;;;;5041381;28;20736;-76
2022/03/16 02:36:48;;;;;;;0.20;0.20;;;;;;;;;;5026860;28;20626;-75
2022/03/16 02:39:16;;;;;;;0.10;0.10;;;;;;;;;;5036651;28;20606;-75
2022/03/16 02:41:48;;;;;;;0.10;0.10;;;;;;;;;;5023985;28;20725;-76
2022/03/16 02:44:15;;;;;;;0.20;0.20;;;;;;;;;;5025184;28;20668;-75
2022/03/16 02:46:43;;;;;;;0.10;0.10;;;;;;;;;;5041696;28;20668;-75
2022/03/16 02:49:10;;;;;;;0.10;0.10;;;;;;;;;;5041926;28;20687;-76
2022/03/16 02:51:37;;;;;;;0.20;0.20;;;;;;;;;;5025945;28;20620;-76
2022/03/16 02:54:04;;;;;;;0.10;0.10;;;;;;;;;;5026719;28;20669;-76
2022/03/16 02:56:32;;;;;;;0.20;0.20;;;;;;;;;;5041364;28;20621;-76
2022/03/16 02:59:00;;;;;;;0.20;0.20;;;;;;;;;;5030221;28;20632;-75
2022/03/16 03:01:29;;;;;;;0.20;0.20;;;;;;;;;;5029490;28;20629;-75
2022/03/16 03:03:56;;;;;;;0.10;0.10;;;;;;;;;;5019304;28;20992;-75
2022/03/16 03:06:24;;;;;;;0.10;0.10;;;;;;;;;;5042266;28;20672;-75
2022/03/16 03:08:51;;;;;;;0.10;0.10;;;;;;;;;;5023756;28;20622;-75
2022/03/16 03:11:18;;;;;;;0.20;0.20;;;;;;;;;;5032159;28;20633;-75
2022/03/16 03:13:46;;;;;;;0.10;0.10;;;;;;;;;;5026733;28;20633;-75
2022/03/16 03:16:14;;;;;;;0.20;0.20;;;;;;;;;;5043794;28;20634;-75
2022/03/16 03:18:41;;;;;;;0.10;0.10;;;;;;;;;;5021996;28;20633;-75
2022/03/16 03:21:09;;;;;;;0.10;0.10;;;;;;;;;;5025186;28;20628;-75
2022/03/16 03:23:36;;;;;;;0.10;0.10;;;;;;;;;;5026405;28;20740;-75
2022/03/16 03:26:03;;;;;;;0.10;0.10;;;;;;;;;;5044059;28;20653;-75
2022/03/16 03:28:31;;;;;;;0.10;0.10;;;;;;;;;;5028593;28;21010;-76
2022/03/16 03:30:58;;;;;;;0.10;0.10;;;;;;;;;;5026813;28;20656;-76
2022/03/16 03:33:27;;;;;;;0.10;0.10;;;;;;;;;;5027107;28;20698;-76
2022/03/16 03:35:54;;;;;;;0.13;0.13;;;;;;;;;;5046448;28;20748;-75
2022/03/16 03:38:22;;;;;;;0.10;0.10;;;;;;;;;;5027388;28;20660;-77
2022/03/16 03:40:49;;;;;;;0.17;0.17;;;;;;;;;;5025330;28;20636;-76
2022/03/16 03:43:16;;;;;;;0.20;0.20;;;;;;;;;;5028201;28;20652;-75
2022/03/16 03:45:44;;;;;;;0.20;0.20;;;;;;;;;;5027762;28;20747;-76
2022/03/16 03:48:11;;;;;;;0.10;0.10;;;;;;;;;;5046137;28;20632;-75
2022/03/16 03:50:40;;;;;;;0.20;0.20;;;;;;;;;;5028244;28;20620;-75
2022/03/16 03:53:07;;;;;;;0.10;0.10;;;;;;;;;;5029805;28;20625;-75
2022/03/16 03:55:35;;;;;;;0.10;0.10;;;;;;;;;;5044405;28;20638;-75
2022/03/16 03:58:02;;;;;;;0.13;0.13;;;;;;;;;;5044471;28;20621;-76
2022/03/16 04:00:29;;;;;;;0.20;0.20;;;;;;;;;;5022352;28;20621;-77
2022/03/16 04:02:56;;;;;;;0.10;0.10;;;;;;;;;;5027047;28;20623;-77
2022/03/16 04:05:23;;;;;;;0.10;0.10;;;;;;;;;;5043713;28;20672;-77
2022/03/16 04:07:52;;;;;;;0.20;0.20;;;;;;;;;;5026530;28;20641;-76
2022/03/16 04:10:19;;;;;;;0.20;0.20;;;;;;;;;;5032384;28;20621;-76
2022/03/16 04:12:47;;;;;;;0.10;0.10;;;3.90;99.90;;;;;;5043843;28;20609;-75
2022/03/16 04:15:14;;;;;;;0.20;0.20;;;4.00;99.90;;;;;;5044038;28;20752;-74
2022/03/16 04:17:41;;;;;;;0.20;0.20;;;;;;;;;;5020981;28;20640;-74
2022/03/16 04:20:09;;;;;;;0.13;0.13;;;;;;;;;;5014195;28;20636;-74
2022/03/16 04:22:36;;;;;;;0.10;0.10;;;;;;;;;;5026667;28;20625;-75
2022/03/16 04:25:05;;;;;;;0.10;0.10;;;;;;;;;;5025942;28;20668;-73
2022/03/16 04:27:32;;;;;;;0.20;0.20;;;;;;;;;;5026979;28;20629;-74
2022/03/16 04:30:00;;;;;;;0.20;0.20;;;;;;;;;;5026208;28;20672;-74
2022/03/16 04:32:27;;;;;;;0.10;0.10;;;;;;;;;;5026763;28;20626;-74
2022/03/16 04:34:54;;;;;;;0.20;0.20;;;;;;;;;;5033873;28;21013;-74
2022/03/16 04:37:21;;;;;;;0.20;0.20;;;;;;;;;;5038549;28;20605;-74
2022/03/16 04:39:49;;;;;;;0.13;0.13;;;;;;;;;;5026479;28;20645;-74
2022/03/16 04:42:18;;;;;;;0.20;0.20;;;;;;;;;;5026275;28;21021;-74
2022/03/16 04:44:45;;;;;;;0.10;0.10;;;;;;;;;;5044684;28;20684;-74
2022/03/16 04:47:12;;;;;;;0.20;0.20;;;;;;;;;;5030322;28;20628;-74
2022/03/16 04:49:40;;;;;;;0.10;0.10;;;;;;;;;;5044248;28;20620;-74
2022/03/16 04:52:07;;;;;;;0.10;0.10;;;;;;;;;;5026847;28;20728;-74
2022/03/16 04:54:34;;;;;;;0.20;0.20;;;;;;;;;;5045969;28;20637;-74
2022/03/16 04:57:02;;;;;;;0.20;0.20;;;;;;;;;;5023106;28;20622;-74
2022/03/16 04:59:31;;;;;;;0.20;0.20;;;;;;;;;;5027308;28;20646;-76
2022/03/16 05:01:58;;;;;;;0.10;0.10;;;;;;;;;;5028453;28;20633;-75
2022/03/16 05:04:25;;;;;;;0.20;0.20;;;;;;;;;;5027454;28;21471;-74
2022/03/16 05:06:53;;;;;;;0.20;0.20;;;;;;;;;;5020614;28;20759;-75
2022/03/16 05:09:20;;;;;;;0.20;0.20;;;;;;;;;;5041204;28;20622;-74
2022/03/16 05:11:47;;;;;;;0.17;0.17;;;;;;;;;;5020579;28;20633;-75
2022/03/16 05:14:15;;;;;;;0.10;0.10;;;;;;;;;;5026750;28;20649;-76
2022/03/16 05:16:43;;;;;;;0.10;0.10;;;;;;;;;;5026750;28;20637;-75
2022/03/16 05:19:11;;;;;;;0.20;0.20;;;;;;;;;;5025941;28;20625;-75
2022/03/16 05:21:38;;;;;;;0.20;0.20;;;;;;;;;;5023673;28;20633;-75
2022/03/16 05:24:06;;;;;;;0.20;0.20;;;;;;;;;;5026041;28;20673;-75
2022/03/16 05:26:33;;;;;;;0.20;0.20;;;;;;;;;;5027809;28;20753;-74
2022/03/16 05:29:00;;;;;;;0.10;0.10;;;;;;;;;;5026859;28;20610;-76
2022/03/16 05:31:28;;;;;;;0.20;0.20;;;;;;;;;;5020998;28;20630;-75
2022/03/16 05:33:56;;;;;;;0.13;0.13;;;;;;;;;;5040157;28;20710;-75
2022/03/16 05:36:23;;;;;;;0.10;0.10;;;;;;;;;;5022851;28;20649;-75
2022/03/16 05:38:51;;;;;;;0.20;0.20;;;;;;;;;;5027858;28;20617;-75
2022/03/16 05:41:18;;;;;;;0.20;0.20;;;;;;;;;;5022865;28;20653;-72
2022/03/16 05:43:45;;;;;;;0.10;0.10;;;;;;;;;;5023425;28;20672;-73
2022/03/16 05:46:13;;;;;;;0.20;0.20;;;;;;;;;;5041876;28;20653;-73
2022/03/16 05:48:40;;;;;;;0.20;0.20;;;;;;;;;;5025315;28;20712;-73
2022/03/16 05:51:09;;;;;;;0.10;0.10;;;;;;;;;;5020039;28;20665;-73
2022/03/16 05:53:36;;;;;;;0.23;0.23;;;;;;;;;;5024733;28;20716;-73
2022/03/16 05:56:04;;;;;;;0.20;0.20;;;;;;;;;;5027640;28;20679;-74
2022/03/16 05:58:32;;;;;;;0.40;0.40;;;;;;;;;;5024775;28;20614;-75
2022/03/16 06:00:59;;;;;;;0.20;0.20;;;;;;;;;;5043370;28;21068;-75
2022/03/16 06:03:26;;;;;;;0.10;0.10;;;;;;;;;;5040636;28;20667;-78
2022/03/16 06:05:54;;;;;;;0.13;0.13;;;;;;;;;;5038319;28;20671;-75
2022/03/16 06:08:22;;;;;;;0.20;0.20;;;;;;;;;;5026665;28;20660;-75
2022/03/16 06:10:49;;;;;;;0.20;0.20;;;;;;;;;;5043935;28;20712;-76
2022/03/16 06:13:17;;;;;;;0.20;0.20;;;;;;;;;;5039813;28;20606;-76
2022/03/16 06:15:46;;;;;;;0.20;0.20;;;;;;;;;;5030389;28;20637;-79
2022/03/16 06:18:13;;;;;;;0.20;0.20;;;;;;;;;;5025039;28;20626;-74
2022/03/16 06:20:41;;;;;;;0.20;0.20;;;;;;;;;;5022799;28;20680;-74
2022/03/16 06:23:08;;;;;;;0.10;0.10;;;;;;;;;;5043689;28;20616;-74
2022/03/16 06:25:37;;;;;;;0.10;0.10;;;;;;;;;;5024662;28;20708;-75
2022/03/16 06:28:05;;;;;;;0.10;0.10;;;;;;;;;;5033074;28;20629;-74
2022/03/16 06:30:32;;;;;;;0.17;0.17;;;;;;;;;;5019805;28;20700;-75
2022/03/16 06:32:59;;;;;;;0.10;0.10;;;;;;;;;;5031052;28;20602;-75
2022/03/16 06:35:27;;;;;;;0.20;0.20;;;;;;;;;;5021926;28;20660;-75
2022/03/16 06:37:54;;;;;;;0.20;0.20;;;;;;;;;;5021592;28;20629;-75
2022/03/16 06:40:21;;;;;;;0.10;0.10;;;;;;;;;;5037244;28;20616;-75
2022/03/16 06:42:52;;;;;;;0.20;0.20;;;;;;;;;;5009842;28;20683;-75
2022/03/16 06:47:58;;;;;;;0.20;0.20;;;;;;;;;;4991983;28;20695;-68
2022/03/16 06:50:26;;;;;;;0.13;0.13;;;;;;;;;;5005987;28;20642;-68
2022/03/16 06:52:54;;;;;;;0.10;0.10;;;;;;;;;;5006222;28;20650;-68
2022/03/16 06:55:21;;;;;;;0.10;0.10;;;;;;;;;;4992437;28;20627;-68
2022/03/16 06:57:51;;;;;;;0.10;0.10;;;;;;;;;;4997358;28;20663;-68
2022/03/16 07:00:18;;;;;;;0.10;0.10;;;;;;;;;;5007415;28;20627;-69
2022/03/16 07:02:49;;;;;;;0.10;0.10;;;;;;;;;;5009177;28;20619;-70
2022/03/16 07:05:17;;;;;;;0.10;0.10;;;;;;;;;;5006407;28;20636;-70
2022/03/16 07:07:44;;;;;;;0.10;0.10;;;;;;;;;;5015327;28;20658;-66
2022/03/16 07:10:11;;;;;;;0.10;0.10;;;;;;;;;;5008588;28;20685;-70
2022/03/16 07:12:39;;;;;;;0.10;0.10;;;;;;;;;;5000255;28;20709;-69
2022/03/16 07:15:09;;;;;;;0.10;0.10;;;;;;;;;;5000614;28;20665;-68
2022/03/16 07:17:36;;;;;;;0.10;0.10;;;;;;;;;;4994334;28;20651;-68
2022/03/16 07:20:06;;;;;;;0.10;0.10;;;;;;;;;;5001622;28;20611;-69
2022/03/16 07:22:33;;;;;;;0.20;0.20;;;;;;;;;;5000866;28;20635;-70
2022/03/16 07:25:00;;;;;;;0.20;0.20;;;;;;;;;;5001558;28;20718;-70
2022/03/16 07:27:28;;;;;;;0.20;0.20;;;;;;;;;;5010702;28;20667;-68
2022/03/16 07:29:55;;;;;;;0.10;0.10;;;;;;;;;;5001814;28;20671;-68
2022/03/16 07:32:24;;;;;;;0.10;0.10;;;;;;;;;;5007254;28;20657;-69
2022/03/16 07:34:51;;;;;;;0.10;0.10;;;;;;;;;;5011503;28;20623;-65
2022/03/16 07:37:19;;;;;;;0.13;0.13;;;;;;;;;;5007872;28;20704;-69
2022/03/16 07:39:46;;;;;;;0.10;0.10;;;;;;;;;;5026429;28;20630;-69
2022/03/16 07:42:15;;;;;;;0.13;0.13;;;;;;;;;;5003351;28;20678;-69
2022/03/16 07:44:43;;;;;;;0.10;0.10;;;;;;;;;;4998127;28;20635;-69
2022/03/16 07:47:10;;;;;;;0.10;0.10;;;;;;;;;;5003084;28;20702;-69
2022/03/16 07:49:39;;;;;;;0.10;0.10;;;8.60;99.90;;;;;;5007186;28;20639;-68
2022/03/16 07:52:06;;;;;;;0.10;0.10;;;;;;;;;;5000231;28;20662;-69
2022/03/16 07:54:34;;;;;;;0.10;0.10;;;;;;;;;;5006230;28;20631;-68
2022/03/16 07:57:01;;;;;;;0.10;0.10;;;9.10;99.90;;;;;;5000153;28;20679;-70
2022/03/16 07:59:28;;;;;;;0.20;0.20;;;;;;;;;;4998892;28;20736;-69
2022/03/16 08:01:56;;;;;;;0.10;0.10;;;;;;;;;;5007223;28;20655;-69
2022/03/16 08:04:22;;;;;;;0.10;0.10;;;9.60;99.90;;;;;;4996631;28;20686;-69
2022/03/16 08:06:51;;;;;;;0.10;0.10;;;;;;;;;;5002202;28;20671;-69
2022/03/16 08:09:18;;;;;;;0.10;0.10;;;;;;;;;;5021672;28;20625;-69
2022/03/16 08:11:46;;;;;;;0.10;0.10;;;;;;;;;;4997693;28;20632;-69
2022/03/16 08:14:13;;;;;;;0.10;0.10;;;;;;;;;;5018249;28;20714;-68
2022/03/16 08:16:41;;;;;;;0.10;0.10;;;;;;;;;;5014116;28;20624;-69
2022/03/16 08:19:08;;;;;;;0.10;0.10;;;;;;;;;;5005862;28;20624;-69
2022/03/16 08:21:36;;;;;;;0.10;0.10;;;;;;;;;;5017033;28;20624;-69
2022/03/16 08:24:05;;;;;;;0.10;0.10;;;10.10;99.90;;;;;;5004248;28;20636;-69
2022/03/16 08:26:32;;;;;;;0.10;0.10;;;10.30;99.90;;;;;;5000185;28;20711;-69
2022/03/16 08:28:59;;;;;;;0.10;0.10;;;;;;;;;;4996189;28;20611;-69
2022/03/16 08:31:26;;;;;;;0.10;0.10;;;;;;;;;;5000485;28;20616;-68
2022/03/16 08:33:56;;;;;;;0.10;0.10;;;;;;;;;;4996324;28;20612;-69
2022/03/16 08:36:23;;;;;;;0.10;0.10;;;;;;;;;;4993498;28;20218;-67
2022/03/16 08:38:51;;;;;;;0.10;0.10;;;;;;;;;;5005493;28;20340;-70
2022/03/16 08:41:19;;;;;;;0.10;0.10;;;;;;;;;;4995307;28;20197;-69
2022/03/16 08:43:46;;;;;;;0.10;0.10;;;;;;;;;;5002357;28;20259;-69
2022/03/16 08:46:14;;;;;;;0.10;0.10;;;;;;;;;;5001417;28;20613;-70
2022/03/16 08:48:41;;;;;;;0.10;0.10;;;;;;;;;;5003904;28;20772;-69
2022/03/16 08:51:10;;;;;;;0.10;0.10;;;;;;;;;;4998776;28;20255;-69
2022/03/16 08:53:38;;;;;;;0.10;0.10;;;;;;;;;;5002692;28;20267;-69
2022/03/16 08:56:05;;;;;;;0.10;0.10;;;;;;;;;;5005692;28;20239;-69
2022/03/16 08:58:34;;;;;;;0.10;0.10;;;;;;;;;;4998882;28;20229;-69
2022/03/16 09:01:01;;;;;;;0.10;0.10;;;;;;;;;;5005461;28;20204;-69
2022/03/16 09:03:28;;;;;;;0.10;0.10;;;;;;;;;;4992631;28;20206;-68
2022/03/16 09:05:55;;;;;;;0.10;0.10;;;;;;;;;;5000873;28;20300;-69
2022/03/16 09:08:23;;;;;;;0.00;0.00;;;;;;;;;;5015869;28;20311;-69
2022/03/16 09:10:50;;;;;;;0.10;0.10;;;;;;;;;;5005767;28;20204;-68
2022/03/16 09:13:19;;;;;;;0.10;0.10;;;;;;;;;;4991762;28;20194;-70
2022/03/16 09:15:49;;;;;;;0.10;0.10;;;;;;;;;;5002621;28;20232;-67
2022/03/16 09:18:18;;;;;;;0.10;0.10;;;;;;;;;;4991865;28;20223;-69
2022/03/16 09:20:46;;;;;;;0.10;0.10;;;;;;;;;;5001387;28;20208;-69
2022/03/16 09:23:13;;;;;;;0.10;0.10;;;;;;;;;;4994437;28;20201;-69
2022/03/16 09:25:41;;;;;;;0.10;0.10;;;;;;;;;;5003081;28;20209;-69
2022/03/16 09:28:09;;;;;;;0.10;0.10;;;;;;;;;;4998167;28;20721;-69
2022/03/16 09:30:36;;;;;;;0.10;0.10;;;;;;;;;;4999979;28;20244;-69
2022/03/16 09:33:06;;;;;;;0.10;0.10;;;;;;;;;;4992709;28;20226;-69
2022/03/16 09:35:35;;;;;;;0.10;0.10;;;;;;;;;;5003065;28;20266;-68
2022/03/16 09:38:02;;;;;;;0.10;0.10;;;;;;;;;;4999370;28;20278;-68
2022/03/16 09:40:29;;;;;;;0.10;0.10;;;;;;;;;;4996488;28;20295;-69
2022/03/16 09:42:57;;;;;;;0.10;0.10;;;;;;;;;;5004630;28;20212;-69
2022/03/16 09:45:28;;;;;;;0.10;0.10;;;;;;;;;;4992948;28;20204;-69
2022/03/16 09:47:56;;;;;;;0.00;0.00;;;;;;;;;;5003687;28;20371;-68
2022/03/16 09:50:25;;;;;;;0.10;0.10;;;;;;;;;;5003263;28;20207;-68
2022/03/16 09:52:52;;;;;;;0.10;0.10;;;;;;;;;;5004531;28;20291;-69
2022/03/16 09:55:21;;;;;;;0.00;0.00;;;;;;;;;;5002053;28;20211;-67
2022/03/16 09:57:48;;;;;;;0.10;0.10;;;;;;;;;;5002059;28;20225;-70
2022/03/16 10:00:17;;;;;;;0.10;0.10;;;;;;;;;;5005158;28;20208;-67
2022/03/16 10:02:44;;;;;;;0.10;0.10;;;;;;;;;;4999052;28;20227;-68
2022/03/16 10:05:12;;;;;;;0.10;0.10;;;;;;;;;;4993498;28;20232;-68
2022/03/16 10:07:41;;;;;;;0.10;0.10;;;10.80;99.90;;;;;;4999115;28;20632;-69
2022/03/16 10:15:38;;;;;;;0.00;0.00;;;12.70;99.90;;;;;;5016142;28;20232;-69
2022/03/16 10:18:06;;;;;;;0.10;0.10;;;13.00;99.90;;;;;;4996818;28;20227;-69
2022/03/16 10:20:34;;;;;;;0.10;0.10;;;13.10;99.90;;;;;;5013509;28;20208;-69
2022/03/16 10:23:05;;;;;;;0.10;0.10;;;13.10;99.90;;;;;;4998811;28;20204;-69
2022/03/16 10:25:35;;;;;;;0.10;0.10;;;13.30;99.90;;;;;;5013804;28;20212;-69
2022/03/16 10:28:11;;;;;;;0.10;0.10;;;13.40;99.90;;;;;;4992839;28;20267;-69
2022/03/16 10:30:40;;;;;;;0.10;0.10;;;13.50;99.90;;;;;;5000989;28;20211;-69
2022/03/16 10:33:08;;;;;;;0.00;0.00;;;13.50;99.90;;;;;;4996257;28;20197;-68
2022/03/16 10:35:36;;;;;;;0.10;0.10;;;13.70;99.90;;;;;;5000103;28;20213;-70
2022/03/16 10:38:13;;;;;;;0.10;0.10;;;13.80;99.90;;;;;;5001529;28;20212;-66
2022/03/16 10:40:40;;;;;;;0.00;0.00;;;13.80;99.90;;;;;;5002208;28;20215;-69
2022/03/16 10:49:04;;;;;;;0.10;0.10;;;13.70;99.90;;;;;;4998946;28;20237;-70
2022/03/16 10:51:31;;;;;;;0.10;0.10;;;13.80;99.90;;;;;;5018567;28;20204;-69
2022/03/16 10:54:02;;;;;;;0.10;0.10;;;13.90;99.90;;;;;;5000240;28;20195;-69
2022/03/16 10:56:30;;;;;;;0.10;0.10;;;14.00;99.90;;;;;;4995603;28;20208;-69
2022/03/16 10:58:58;;;;;;;0.10;0.10;;;14.00;99.90;;;;;;4999814;28;20211;-68
2022/03/16 11:01:27;;;;;;;0.00;0.00;;;13.90;99.90;;;;;;5004401;28;20216;-69
2022/03/16 11:03:58;;;;;;;0.00;0.00;;;13.70;99.90;;;;;;4994718;28;20204;-68
2022/03/16 11:06:26;;;;;;;0.00;0.00;;;13.80;99.90;;;;;;5000665;28;20296;-68
2022/03/16 11:08:55;;;;;;;0.10;0.10;;;13.70;99.90;;;;;;5004356;28;20227;-67
2022/03/16 11:14:10;;;;;;;0.10;0.10;;;13.80;99.90;;;;;;4995868;28;20211;-69
2022/03/16 11:16:38;;;;;;;0.10;0.10;;;13.70;99.90;;;;;;4999502;28;20268;-68
2022/03/16 11:19:06;;;;;;;0.00;0.00;;;13.60;99.90;;;;;;5014318;28;20211;-69
2022/03/16 11:21:44;;;;;;;0.10;0.10;;;13.90;99.90;;;;;;4998015;28;20212;-69
2022/03/16 11:24:17;;;;;;;0.00;0.00;;;13.90;99.90;;;;;;5003891;28;20204;-69
2022/03/16 11:27:30;;;;;;;0.00;0.00;;;13.80;99.90;;;;;;5000859;28;20255;-67
2022/03/16 11:30:09;;;;;;;0.10;0.10;;;13.70;99.90;;;;;;4956605;28;20235;-69
2022/03/16 11:32:38;;;;;;;0.00;0.00;;;13.60;99.90;;;;;;5017929;28;20295;-69
2022/03/16 11:35:09;;;;;;;0.00;0.00;;;13.60;99.90;;;;;;5000927;28;20204;-68
2022/03/16 11:37:40;;;;;;;0.00;0.00;;;13.50;99.90;;;;;;4999464;28;20237;-67
2022/03/16 11:40:12;;;;;;;0.10;0.10;;;13.40;99.90;;;;;;5003224;28;20208;-69
2022/03/16 11:42:44;;;;;;;0.00;0.00;;;13.40;99.90;;;;;;5002424;28;20251;-69
2022/03/16 11:45:38;;;;;;;0.00;0.00;;;13.40;99.90;;;;;;5002888;28;20205;-69
2022/03/16 11:48:40;;;;;;;0.00;0.00;;;13.40;99.90;;;;;;5004415;28;20225;-68
2022/03/16 11:51:24;;;;;;;0.00;0.00;;;13.30;99.90;;;;;;5003344;28;20204;-69
2022/03/16 11:54:11;;;;;;;0.00;0.00;;;13.20;99.90;;;;;;4999371;28;20216;-68
2022/03/16 11:56:50;;;;;;;0.00;0.00;;;13.20;99.90;;;;;;4993890;28;20271;-70
2022/03/16 11:59:40;;;;;;;0.10;0.10;;;13.20;99.90;;;;;;5005302;28;20313;-70
2022/03/16 12:02:34;;;;;;;0.10;0.10;;;13.30;99.90;;;;;;5009893;28;20205;-68
2022/03/16 12:05:02;;;;;;;0.00;0.00;;;13.50;99.90;;;;;;4996640;28;20208;-69
2022/03/16 12:07:33;;;;;;;0.00;0.00;;;13.70;99.90;;;;;;4995563;28;20295;-69
2022/03/16 12:10:08;;;;;;;0.10;0.10;;;13.80;99.90;;;;;;4996530;28;20212;-67
2022/03/16 12:12:54;;;;;;;0.00;0.00;;;14.00;99.90;;;;;;5004911;28;20266;-68
2022/03/16 12:15:32;;;;;;;0.10;0.10;;;14.10;99.90;;;;;;4998194;28;20225;-68
2022/03/16 12:18:39;;;;;;;0.00;0.00;;;14.10;99.90;;;;;;5002774;28;20228;-68
2022/03/16 12:21:10;;;;;;;0.00;0.00;;;14.20;99.90;;;;;;4996951;28;20203;-70
2022/03/16 12:23:58;;;;;;;0.10;0.10;;;14.30;99.90;;;;;;4995904;28;20213;-68
2022/03/16 12:26:28;;;;;;;0.00;0.00;;;14.20;99.90;;;;;;5002407;28;20678;-67
2022/03/16 12:29:07;;;;;;;0.00;0.00;;;14.10;99.90;;;;;;5007090;28;20221;-69
2022/03/16 12:31:42;;;;;;;0.10;0.10;;;14.20;99.90;;;;;;4995757;28;20200;-68
2022/03/16 12:34:15;;;;;;;0.10;0.10;;;14.20;99.90;;;;;;4997881;28;20208;-68
2022/03/16 12:36:42;;;;;;;0.00;0.00;;;14.40;99.90;;;;;;4994805;28;20204;-69
2022/03/16 12:39:13;;;;;;;0.10;0.10;;;14.40;99.90;;;;;;4997132;28;20216;-68
2022/03/16 12:44:25;;;;;;;0.00;0.00;;;14.60;99.90;;;;;;5005402;28;20205;-68
2022/03/16 12:47:03;;;;;;;0.00;0.00;;;14.60;99.90;;;;;;4995681;28;20251;-69
2022/03/16 12:49:33;;;;;;;0.00;0.00;;;14.70;99.90;;;;;;5003509;28;20200;-70
2022/03/16 12:52:02;;;;;;;0.10;0.10;;;14.70;99.90;;;;;;5020345;28;20197;-68
2022/03/16 12:54:31;;;;;;;0.00;0.00;;;14.60;99.90;;;;;;4993522;28;20196;-70
2022/03/16 12:57:03;;;;;;;0.10;0.10;;;14.50;99.90;;;;;;4998484;28;20231;-69
2022/03/16 13:01:59;;;;;;;0.00;0.00;;;14.40;99.90;;;;;;5005337;28;20204;-70
2022/03/16 13:04:28;;;;;;;0.00;0.00;;;14.30;99.90;;;;;;4999808;28;20235;-70
2022/03/16 13:06:57;;;;;;;0.10;0.10;;;14.20;99.90;;;;;;4998306;28;20207;-70
2022/03/16 13:09:28;;;;;;;0.00;0.00;;;14.20;99.90;;;;;;5000180;28;20230;-69
2022/03/16 13:12:03;;;;;;;0.00;0.00;;;14.20;99.90;;;;;;4993601;28;20262;-70
2022/03/16 13:14:35;;;;;;;0.07;0.07;;;14.20;99.90;;;;;;5006218;28;20200;-71
2022/03/16 13:17:04;;;;;;;0.00;0.00;;;14.20;99.90;;;;;;4993425;28;20236;-70
2022/03/16 13:19:33;;;;;;;0.00;0.00;;;14.20;99.90;;;;;;4992493;28;20238;-71
2022/03/16 13:22:06;;;;;;;0.00;0.00;;;14.10;99.90;;;;;;4985200;28;20209;-69
2022/03/16 13:24:35;;;;;;;0.00;0.00;;;14.10;99.90;;;;;;5004835;28;20208;-69
2022/03/16 13:27:05;;;;;;;0.00;0.00;;;14.00;99.90;;;;;;5004163;28;20212;-70
2022/03/16 13:29:35;;;;;;;0.00;0.00;;;14.00;99.90;;;;;;5007739;28;20278;-69
2022/03/16 13:32:04;;;;;;;0.10;0.10;;;14.10;99.90;;;;;;4989265;28;20250;-69
2022/03/16 13:34:34;;;;;;;0.00;0.00;;;14.00;99.90;;;;;;5008612;28;20239;-68
2022/03/16 13:37:19;;;;;;;0.07;0.07;;;14.00;99.90;;;;;;4982383;28;20291;-69
2022/03/16 13:39:56;;;;;;;0.10;0.10;;;14.10;99.90;;;;;;4993923;28;20226;-68
2022/03/16 13:42:28;;;;;;;0.00;0.00;;;14.10;99.90;;;;;;5002669;28;20636;-68
2022/03/16 13:45:15;;;;;;;0.00;0.00;;;14.20;99.90;;;;;;4992007;28;20251;-69
2022/03/16 13:47:43;;;;;;;0.10;0.10;;;14.20;99.90;;;;;;5000981;28;20224;-69
2022/03/16 13:50:21;;;;;;;0.00;0.00;;;14.30;99.90;;;;;;5002286;28;20197;-68
2022/03/16 13:52:53;;;;;;;0.10;0.10;;;14.30;99.90;;;;;;5001206;28;20208;-69
2022/03/16 13:55:21;;;;;;;0.07;0.07;;;14.30;99.90;;;;;;5013983;28;20196;-69
2022/03/16 13:57:50;;;;;;;0.10;0.10;;;14.20;99.90;;;;;;4983898;28;20227;-68
2022/03/16 14:00:18;;;;;;;0.10;0.10;;;14.10;99.90;;;;;;4986705;28;20733;-70
2022/03/16 14:02:47;;;;;;;0.00;0.00;;;14.10;99.90;;;;;;4992733;28;20272;-70
2022/03/16 14:05:17;;;;;;;0.10;0.10;;;13.90;99.90;;;;;;4998984;28;20200;-69
2022/03/16 14:07:47;;;;;;;0.10;0.10;;;13.70;99.90;;;;;;4995926;28;20225;-68
2022/03/16 14:10:20;;;;;;;0.00;0.00;;;13.60;99.90;;;;;;5001722;28;20200;-69
2022/03/16 14:12:47;;;;;;;0.00;0.00;;;13.50;99.90;;;;;;5001308;28;20208;-69
2022/03/16 14:15:17;;;;;;;0.00;0.00;;;13.50;99.90;;;;;;5002225;28;20273;-69
2022/03/16 14:17:47;;;;;;;0.00;0.00;;;13.60;99.90;;;;;;4999915;28;20224;-69
2022/03/16 14:20:16;;;;;;;0.00;0.00;;;13.50;99.90;;;;;;4979518;28;20201;-69
2022/03/16 14:22:45;;;;;;;0.00;0.00;;;13.50;99.90;;;;;;5001533;28;20262;-69
2022/03/16 14:25:18;;;;;;;0.07;0.07;;;13.50;99.90;;;;;;5000252;28;20205;-68
2022/03/16 14:27:48;;;;;;;0.10;0.10;;;13.60;99.90;;;;;;4986303;28;20225;-69
2022/03/16 14:30:17;;;;;;;0.00;0.00;;;13.50;99.90;;;;;;4999947;28;20216;-69
2022/03/16 14:32:46;;;;;;;0.10;0.10;;;13.50;99.90;;;;;;5000123;28;20222;-69
2022/03/16 14:35:12;;;;;;;0.00;0.00;;;13.50;99.90;;;;;;5001213;28;20204;-69
2022/03/16 14:37:40;;;;;;;0.00;0.00;;;13.50;99.90;;;;;;5007052;28;20219;-68